Time;durP1;ratioP1;P1;durP2;ratioP2;P2;SDS_P1;SDS_P2;PMS_P1;PMS_P2;Temp;Humidity;BMP_temperature;BMP_pressure;BME280_temperature;BME280_humidity;BME280_pressure;Samples;Min_cycle;Max_cycle;Signal;HPM_P1;HPM_P2
2023/03/03 00:00:58;;;;;;;34.27;13.97;;;;;;;42.64;37.10;100966.91;6101034;23;20381;-84
2023/03/03 00:03:26;;;;;;;28.80;13.90;;;;;;;42.61;37.11;100964.06;6100880;23;20398;-89
2023/03/03 00:05:52;;;;;;;32.70;13.67;;;;;;;42.39;37.65;100959.75;6100452;23;20424;-89
2023/03/03 00:08:19;;;;;;;39.33;15.50;;;;;;;42.60;37.23;100955.09;6100808;23;20386;-85
2023/03/03 00:10:46;;;;;;;32.83;15.30;;;;;;;42.61;37.15;100948.50;6099964;23;20418;-87
2023/03/03 00:13:18;;;;;;;44.03;15.27;;;;;;;42.44;37.32;100954.09;6100249;23;20855;-85
2023/03/03 00:15:44;;;;;;;30.53;13.33;;;;;;;42.35;37.13;100945.19;6100305;23;20386;-84
2023/03/03 00:18:32;;;;;;;26.77;13.57;;;;;;;42.37;37.27;100937.47;6100175;23;20386;-81
2023/03/03 00:21:00;;;;;;;28.73;12.70;;;;;;;42.25;37.68;100946.41;6100172;23;20386;-81
2023/03/03 00:23:39;;;;;;;29.47;13.13;;;;;;;42.26;38.02;100944.47;6100390;23;20382;-82
2023/03/03 00:26:35;;;;;;;28.40;13.37;;;;;;;42.40;37.92;100931.34;6099743;23;20382;-87
2023/03/03 00:29:18;;;;;;;28.43;12.03;;;;;;;42.34;37.76;100935.41;6076464;23;20473;-86
2023/03/03 00:31:44;;;;;;;35.20;15.40;;;;;;;42.46;37.73;100938.19;6099973;23;20429;-85
2023/03/03 00:34:16;;;;;;;30.07;13.87;;;;;;;42.38;37.82;100926.22;6100172;23;20505;-88
2023/03/03 00:36:42;;;;;;;23.93;14.10;;;;;;;42.39;37.62;100925.09;6125708;23;20402;-81
2023/03/03 00:39:27;;;;;;;25.07;13.27;;;;;;;42.40;37.46;100923.97;6099985;23;20385;-81
2023/03/03 00:41:54;;;;;;;35.07;13.70;;;;;;;42.49;37.12;100912.97;6126062;23;20374;-81
2023/03/03 00:44:39;;;;;;;35.83;14.83;;;;;;;42.33;36.77;100912.81;6099920;23;20942;-83
2023/03/03 00:47:37;;;;;;;36.00;15.57;;;;;;;42.27;36.59;100916.88;6100091;23;20465;-87
2023/03/03 00:50:06;;;;;;;40.23;14.50;;;;;;;42.28;36.78;100912.22;6076742;23;20934;-85
2023/03/03 00:52:37;;;;;;;30.07;13.20;;;;;;;42.15;36.85;100914.06;6100082;23;20437;-86
2023/03/03 00:55:05;;;;;;;45.23;12.77;;;;;;;41.77;37.43;100912.31;6099970;23;20390;-83
2023/03/03 00:57:31;;;;;;;25.03;11.40;;;;;;;41.98;37.21;100914.22;6099559;23;20843;-81
2023/03/03 00:59:57;;;;;;;29.27;12.40;;;;;;;42.21;36.89;100901.84;6099874;23;20533;-80
2023/03/03 01:02:23;;;;;;;35.70;13.03;;;;;;;42.10;37.29;100901.44;6099934;23;20410;-83
2023/03/03 01:04:52;;;;;;;28.73;14.10;;;;;;;41.93;37.59;100900.78;6099759;23;20177;-83
2023/03/03 01:07:18;;;;;;;33.10;14.90;;;;;;;42.01;37.87;100898.00;6126542;23;20370;-85
2023/03/03 01:09:44;;;;;;;37.30;14.33;;;;;;;42.27;37.56;100899.72;6098704;23;20394;-80
2023/03/03 01:12:11;;;;;;;28.17;12.90;;;;;;;42.38;37.12;100890.78;6099674;23;20429;-83
2023/03/03 01:14:38;;;;;;;26.00;14.80;;;;;;;42.33;37.55;100888.28;6099997;23;20394;-89
2023/03/03 01:17:04;;;;;;;28.83;13.40;;;;;;;42.39;37.24;100873.28;6099391;23;20417;-82
2023/03/03 01:19:30;;;;;;;31.80;12.60;;;;;;;42.43;37.49;100875.34;6100179;23;20393;-87
2023/03/03 01:21:56;;;;;;;26.70;14.27;;;;;;;42.45;36.94;100868.41;6099329;23;20413;-90
2023/03/03 01:24:22;;;;;;;35.93;14.00;;;;;;;42.33;37.15;100873.84;6100236;23;20386;-90
2023/03/03 01:26:48;;;;;;;26.13;11.77;;;;;;;42.27;36.75;100878.72;6099887;23;20402;-89
2023/03/03 01:29:14;;;;;;;22.63;12.00;;;;;;;42.26;36.98;100879.06;6099686;23;20414;-90
2023/03/03 01:31:40;;;;;;;32.03;13.70;;;;;;;42.42;36.85;100877.28;6099424;23;20441;-84
2023/03/03 01:34:07;;;;;;;25.07;14.40;;;;;;;42.38;36.10;100868.97;6099444;23;20955;-89
2023/03/03 01:36:33;;;;;;;35.57;13.50;;;;;;;42.37;36.86;100864.66;6099541;23;20557;-88
2023/03/03 01:39:00;;;;;;;26.27;13.37;;;;;;;42.20;36.82;100851.22;6099972;23;20521;-86
2023/03/03 01:41:32;;;;;;;32.87;13.93;;;;;;;42.17;36.89;100849.13;6126215;23;20803;-89
2023/03/03 01:43:59;;;;;;;37.87;15.40;;;;;;;41.85;37.55;100840.59;6100005;23;20421;-89
2023/03/03 01:46:43;;;;;;;22.00;13.57;;;;;;;42.29;36.91;100813.72;6099828;23;20794;-88
2023/03/03 01:49:17;;;;;;;33.33;13.47;;;;;;;41.74;37.70;100804.03;6100121;23;20390;-85
2023/03/03 01:52:09;;;;;;;25.97;13.50;;;;;;;41.92;37.53;100796.47;6099544;23;20428;-89
2023/03/03 01:54:41;;;;;;;30.90;13.33;;;;;;;41.96;37.24;100769.34;6099239;23;20465;-89
2023/03/03 01:57:12;;;;;;;36.00;13.60;;;;;;;41.99;37.27;100757.75;6099510;23;20714;-88
2023/03/03 01:59:45;;;;;;;42.37;14.17;;;;;;;41.86;37.57;100746.81;6099185;23;20485;-87
2023/03/03 02:02:11;;;;;;;36.23;14.90;;;;;;;41.86;37.87;100748.75;6099892;23;20408;-88
2023/03/03 02:04:38;;;;;;;31.30;15.50;;;;;;;41.29;38.96;100739.28;6098966;23;20953;-87
2023/03/03 02:07:13;;;;;;;36.40;13.20;;;;;;;41.12;38.54;100733.97;6099408;23;20378;-88
2023/03/03 02:09:58;;;;;;;29.70;12.93;;;;;;;41.31;38.68;100725.34;6099177;23;20894;-87
2023/03/03 02:12:48;;;;;;;22.63;13.37;;;;;;;41.45;38.46;100719.66;6099607;23;20430;-88
2023/03/03 02:15:23;;;;;;;38.00;16.90;;;;;;;41.36;38.59;100708.84;6099668;23;20913;-88
2023/03/03 02:17:56;;;;;;;22.73;12.60;;;;;;;41.49;38.60;100713.19;6099178;23;20417;-87
2023/03/03 02:20:29;;;;;;;26.87;13.03;;;;;;;41.63;38.26;100720.31;6093604;23;20458;-90
2023/03/03 02:23:17;;;;;;;31.23;14.13;;;;;;;41.47;38.47;100720.91;6099243;23;20374;-88
2023/03/03 02:25:55;;;;;;;32.67;15.97;;;;;;;41.59;38.16;100718.25;6098999;23;20376;-89
2023/03/03 02:28:32;;;;;;;26.20;12.70;;;;;;;41.54;38.48;100725.81;6099375;23;20389;-84
2023/03/03 02:31:00;;;;;;;31.03;12.97;;;;;;;41.80;38.42;100731.81;6099420;23;20425;-90
2023/03/03 02:33:28;;;;;;;27.53;13.37;;;;;;;41.76;38.00;100741.03;6098855;23;20390;-90
2023/03/03 02:35:54;;;;;;;40.77;13.57;;;;;;;41.45;38.67;100749.63;6100065;23;20829;-89
2023/03/03 02:38:32;;;;;;;21.93;12.80;;;;;;;41.79;37.82;100735.69;6099167;23;20374;-89
2023/03/03 02:41:02;;;;;;;38.17;14.33;;;;;;;41.86;37.71;100737.84;6126406;23;20374;-89
2023/03/03 02:43:44;;;;;;;36.37;15.67;;;;;;;41.97;37.16;100757.31;6099648;23;20472;-89
2023/03/03 02:46:10;;;;;;;27.77;16.60;;;;;;;41.92;37.72;100749.34;6091557;23;20758;-90
2023/03/03 02:48:36;;;;;;;27.67;15.67;;;;;;;42.09;37.62;100741.78;6099348;23;20393;-90
2023/03/03 02:51:02;;;;;;;37.03;14.43;;;;;;;42.12;37.52;100732.16;6099730;23;20437;-89
2023/03/03 02:53:28;;;;;;;29.70;14.30;;;;;;;42.10;37.19;100751.53;6125092;23;20406;-86
2023/03/03 02:55:53;;;;;;;28.03;13.77;;;;;;;41.98;37.30;100756.97;6077786;23;20394;-89
2023/03/03 02:58:19;;;;;;;30.17;12.90;;;;;;;42.00;37.55;100753.94;6101470;23;20390;-89
2023/03/03 03:00:48;;;;;;;33.20;14.07;;;;;;;41.87;37.27;100761.28;6101453;23;20858;-89
2023/03/03 03:03:14;;;;;;;31.17;13.97;;;;;;;41.70;37.28;100775.03;6101642;23;20397;-89
2023/03/03 03:05:40;;;;;;;27.57;14.33;;;;;;;41.80;37.39;100767.25;6101640;23;20389;-88
2023/03/03 03:08:06;;;;;;;26.00;14.00;;;;;;;42.04;37.17;100773.91;6101156;23;20418;-88
2023/03/03 03:10:32;;;;;;;23.47;14.63;;;;;;;42.09;36.80;100760.06;6100930;23;20386;-88
2023/03/03 03:12:58;;;;;;;22.00;13.27;;;;;;;41.76;37.67;100777.22;6101107;23;20429;-88
2023/03/03 03:15:24;;;;;;;21.40;10.63;;;;;;;41.79;37.71;100776.56;6101552;23;20386;-89
2023/03/03 03:17:50;;;;;;;35.97;14.40;;;;;;;41.72;37.79;100781.72;6100715;23;20389;-88
2023/03/03 03:20:17;;;;;;;33.03;12.67;;;;;;;41.83;37.69;100772.03;6100511;23;20392;-89
2023/03/03 03:22:43;;;;;;;27.13;13.67;;;;;;;41.84;37.75;100772.81;6101090;23;20158;-89
2023/03/03 03:25:09;;;;;;;34.57;13.20;;;;;;;41.85;37.34;100774.41;6101018;23;20385;-87
2023/03/03 03:27:35;;;;;;;31.50;14.10;;;;;;;42.02;36.87;100774.25;6100974;23;20417;-84
2023/03/03 03:30:01;;;;;;;32.07;11.77;;;;;;;41.83;37.68;100771.25;6126845;23;20862;-84
2023/03/03 03:32:27;;;;;;;31.73;12.40;;;;;;;42.04;36.91;100771.97;6100556;23;20450;-84
2023/03/03 03:34:53;;;;;;;28.70;13.73;;;;;;;41.74;37.61;100767.75;6100364;23;20805;-83
2023/03/03 03:37:19;;;;;;;19.60;13.17;;;;;;;41.84;37.92;100768.16;6100698;23;20882;-83
2023/03/03 03:39:45;;;;;;;26.80;11.50;;;;;;;41.56;37.51;100757.03;6098487;23;20421;-84
2023/03/03 03:42:11;;;;;;;27.07;12.60;;;;;;;41.44;37.77;100756.19;6101437;23;20386;-85
2023/03/03 03:44:37;;;;;;;30.50;13.80;;;;;;;41.47;37.61;100764.47;6100549;23;20441;-91
2023/03/03 03:47:03;;;;;;;22.93;13.43;;;;;;;41.72;37.67;100776.28;6100404;23;20910;-80
2023/03/03 03:49:29;;;;;;;31.13;13.53;;;;;;;41.93;37.29;100772.72;6100490;23;20390;-80
2023/03/03 03:51:55;;;;;;;27.50;14.07;;;;;;;42.05;36.77;100776.31;6100591;23;20771;-81
2023/03/03 03:54:21;;;;;;;41.27;15.70;;;;;;;41.91;37.08;100781.25;6100546;23;20178;-81
2023/03/03 03:56:46;;;;;;;45.33;15.17;;;;;;;41.84;36.90;100781.78;6100349;23;20389;-83
2023/03/03 03:59:13;;;;;;;37.23;15.30;;;;;;;41.86;37.26;100778.72;6100065;23;20421;-86
2023/03/03 04:01:39;;;;;;;32.93;13.50;;;;;;;41.74;37.20;100787.69;6100883;23;20851;-83
2023/03/03 04:04:05;;;;;;;27.13;14.30;;;;;;;41.97;37.06;100779.09;6100660;23;20433;-84
2023/03/03 04:06:31;;;;;;;22.47;12.90;;;;;;;41.93;36.82;100799.97;6100068;23;20402;-84
2023/03/03 04:08:57;;;;;;;25.83;11.77;;;;;;;41.96;36.80;100793.88;6100955;23;20422;-84
2023/03/03 04:11:23;;;;;;;22.57;11.57;;;;;;;41.96;36.73;100794.66;6100668;23;20457;-85
2023/03/03 04:13:49;;;;;;;32.37;15.43;;;;;;;42.01;36.20;100794.44;6101339;23;20393;-89
2023/03/03 04:16:15;;;;;;;29.40;13.73;;;;;;;41.79;37.08;100803.78;6100533;23;20409;-91
2023/03/03 04:18:42;;;;;;;30.37;13.33;;;;;;;41.83;37.13;100810.16;6100320;23;20389;-83
2023/03/03 04:21:12;;;;;;;25.93;13.73;;;;;;;41.76;37.02;100803.69;6100339;23;20852;-84
2023/03/03 04:23:38;;;;;;;40.53;14.50;;;;;;;41.83;37.30;100795.75;6100357;23;20473;-83
2023/03/03 04:26:04;;;;;;;24.53;11.90;;;;;;;41.83;37.39;100798.47;6126981;23;20874;-85
2023/03/03 04:28:30;;;;;;;27.53;14.70;;;;;;;41.91;36.87;100794.88;6100677;23;20390;-84
2023/03/03 04:30:56;;;;;;;24.20;13.37;;;;;;;41.74;37.03;100795.84;6101317;23;20396;-85
2023/03/03 04:33:22;;;;;;;36.17;14.67;;;;;;;41.78;37.26;100794.03;6099939;23;20394;-86
2023/03/03 04:35:48;;;;;;;44.20;13.83;;;;;;;41.73;37.03;100802.38;6100537;23;20703;-85
2023/03/03 04:38:14;;;;;;;33.13;15.63;;;;;;;41.66;37.56;100809.50;6099923;23;20901;-85
2023/03/03 04:40:42;;;;;;;29.63;12.90;;;;;;;41.84;37.80;100800.88;6100124;23;20473;-84
2023/03/03 04:43:10;;;;;;;39.00;14.23;;;;;;;42.01;37.46;100804.56;6077237;23;20967;-85
2023/03/03 04:45:36;;;;;;;27.87;14.67;;;;;;;41.81;37.63;100789.84;6076687;23;20401;-83
2023/03/03 04:48:02;;;;;;;28.77;13.40;;;;;;;41.57;37.99;100790.53;6100054;23;20394;-85
2023/03/03 04:50:28;;;;;;;31.73;13.57;;;;;;;41.61;37.86;100796.88;6099938;23;20420;-86
2023/03/03 04:52:54;;;;;;;30.53;12.27;;;;;;;41.65;37.54;100795.09;6100313;23;20453;-83
2023/03/03 04:55:20;;;;;;;31.63;16.93;;;;;;;41.73;37.32;100796.13;6100029;23;20449;-86
2023/03/03 04:57:46;;;;;;;31.53;13.50;;;;;;;41.65;37.67;100797.00;6099916;23;20394;-85
2023/03/03 05:00:13;;;;;;;33.47;13.57;;;;;;;41.34;38.26;100787.34;6099588;23;20972;-83
2023/03/03 05:02:40;;;;;;;34.87;14.07;;;;;;;41.52;37.85;100779.81;6099857;23;21036;-87
2023/03/03 05:05:08;;;;;;;25.27;12.80;;;;;;;41.49;37.85;100775.81;6100308;23;20723;-85
2023/03/03 05:07:34;;;;;;;29.57;15.93;;;;;;;41.20;38.43;100765.78;6100599;23;20744;-86
2023/03/03 05:10:00;;;;;;;24.43;12.60;;;;;;;41.43;38.22;100762.75;6100230;23;20464;-91
2023/03/03 05:12:27;;;;;;;30.40;14.00;;;;;;;41.37;38.43;100767.59;6100230;23;20433;-92
2023/03/03 05:14:53;;;;;;;27.43;12.67;;;;;;;41.64;38.10;100771.72;6100003;23;20453;-86
2023/03/03 05:17:19;;;;;;;33.90;14.27;;;;;;;41.43;39.00;100788.03;6100314;23;20441;-85
2023/03/03 05:19:45;;;;;;;29.07;18.33;;;;;;;41.73;38.58;100785.25;6099674;23;20382;-84
2023/03/03 05:22:12;;;;;;;24.33;14.20;;;;;;;41.57;38.40;100806.84;6099745;23;20732;-85
2023/03/03 05:24:38;;;;;;;30.60;14.77;;;;;;;41.85;37.66;100813.34;6098829;23;20477;-82
2023/03/03 05:27:04;;;;;;;29.07;14.07;;;;;;;41.65;37.58;100819.59;6099396;23;20410;-85
2023/03/03 05:29:32;;;;;;;41.37;16.23;;;;;;;41.84;36.84;100816.41;6098941;23;20397;-78
2023/03/03 05:31:58;;;;;;;31.57;14.20;;;;;;;41.80;36.52;100821.72;6099285;23;20434;-81
2023/03/03 05:34:24;;;;;;;50.67;14.97;;;;;;;41.93;36.38;100816.31;6098951;23;20473;-82
2023/03/03 05:36:50;;;;;;;30.07;16.13;;;;;;;41.79;36.54;100824.78;6099451;23;20390;-82
2023/03/03 05:39:16;;;;;;;40.10;13.67;;;;;;;41.90;36.89;100825.19;6099296;23;20449;-83
2023/03/03 05:41:42;;;;;;;37.47;16.43;;;;;;;41.76;37.50;100829.00;6099411;23;20386;-80
2023/03/03 05:44:08;;;;;;;25.60;13.77;;;;;;;41.86;37.22;100825.84;6099361;23;20378;-80
2023/03/03 05:46:34;;;;;;;33.73;13.80;;;;;;;41.76;37.33;100842.63;6099484;23;20897;-79
2023/03/03 05:49:00;;;;;;;40.90;15.73;;;;;;;41.86;37.39;100841.38;6099385;23;20414;-83
2023/03/03 05:51:26;;;;;;;25.47;12.10;;;;;;;41.67;37.29;100841.03;6098901;23;20544;-88
2023/03/03 05:53:52;;;;;;;34.57;14.97;;;;;;;41.74;37.41;100839.44;6099642;23;20417;-86
2023/03/03 05:56:18;;;;;;;29.23;13.97;;;;;;;41.60;36.93;100849.75;6100154;23;20394;-86
2023/03/03 07:58:44;;;;;;;24.17;13.63;;;;;;;41.98;36.38;101028.66;6081322;22;1867357;-88
2023/03/03 08:01:38;;;;;;;33.47;15.30;;;;;;;42.21;36.33;101034.63;6157626;23;20597;-88
2023/03/03 08:04:51;;;;;;;33.07;15.60;;;;;;;42.29;36.40;101034.56;6153801;23;20408;-84
2023/03/03 08:07:19;;;;;;;30.73;15.10;;;;;;;42.26;36.44;101027.06;6154839;23;20384;-81
2023/03/03 08:09:57;;;;;;;22.70;13.17;;;;;;;42.14;36.61;101029.69;6153646;23;20431;-85
2023/03/03 08:12:46;;;;;;;32.50;13.10;;;;;;;42.03;36.04;101036.66;6154397;23;20900;-88
2023/03/03 08:15:23;;;;;;;23.77;13.93;;;;;;;42.32;35.89;101033.13;6153133;23;20480;-85
2023/03/03 08:17:52;;;;;;;27.67;15.30;;;;;;;42.38;36.25;101031.78;6153667;23;20469;-83
2023/03/03 08:20:42;;;;;;;27.30;13.43;;;;;;;42.17;36.42;101037.22;6153739;23;20440;-86
2023/03/03 08:23:08;;;;;;;33.43;15.20;;;;;;;42.44;35.62;101041.34;6158170;23;20358;-86
2023/03/03 08:25:34;;;;;;;33.40;12.83;;;;;;;42.46;35.83;101041.00;6153872;23;20728;-91
2023/03/03 08:28:00;;;;;;;33.27;16.00;;;;;;;42.06;36.14;101041.44;6153770;23;20845;-90
2023/03/03 08:30:26;;;;;;;31.63;15.83;;;;;;;42.10;36.42;101048.63;6153279;23;20178;-84
2023/03/03 08:32:51;;;;;;;28.73;13.63;;;;;;;42.18;35.87;101049.75;6153448;23;20513;-88
2023/03/03 08:35:17;;;;;;;31.77;13.93;;;;;;;42.18;36.25;101054.41;6153101;23;20158;-84
2023/03/03 08:37:43;;;;;;;33.17;16.07;;;;;;;42.10;36.15;101053.28;6153624;23;20653;-92
2023/03/03 08:40:10;;;;;;;30.03;13.40;;;;;;;42.28;36.08;101059.44;6152701;23;20378;-89
2023/03/03 08:42:39;;;;;;;32.03;13.97;;;;;;;42.25;36.36;101058.19;6153806;23;20384;-87
2023/03/03 08:45:10;;;;;;;38.63;14.20;;;;;;;42.24;36.54;101067.50;6132183;23;20386;-88
2023/03/03 08:47:39;;;;;;;26.10;13.47;;;;;;;42.37;36.10;101066.44;6155406;23;20362;-90
2023/03/03 08:50:05;;;;;;;38.47;12.50;;;;;;;42.39;36.40;101063.38;6130251;23;20429;-94
2023/03/03 08:52:33;;;;;;;22.90;15.87;;;;;;;42.49;36.04;101073.09;6154140;23;20383;-84
2023/03/03 08:54:59;;;;;;;23.57;12.60;;;;;;;42.51;35.96;101060.69;6153862;23;20417;-94
2023/03/03 08:57:25;;;;;;;27.93;13.00;;;;;;;42.37;35.99;101073.81;6155132;23;20436;-93
2023/03/03 08:59:50;;;;;;;22.60;13.80;;;;;;;42.30;36.10;101077.06;6152768;23;20397;-86
2023/03/03 09:02:16;;;;;;;38.73;14.93;;;;;;;42.34;36.13;101086.16;6153255;23;20379;-91
2023/03/03 09:05:11;;;;;;;23.93;12.27;;;;;;;42.45;36.08;101092.03;6153710;23;20770;-96
2023/03/03 09:07:38;;;;;;;25.70;12.10;;;;;;;42.39;36.13;101098.81;6163695;23;20377;-95
2023/03/03 09:10:05;;;;;;;36.10;15.40;;;;;;;42.29;37.27;101104.66;6157044;23;20424;-95
2023/03/03 09:12:38;;;;;;;34.37;16.07;;;;;;;42.27;36.97;101102.25;6152771;23;20382;-83
2023/03/03 09:15:17;;;;;;;31.93;16.03;;;;;;;42.32;36.88;101093.88;6155422;23;20385;-94
2023/03/03 09:17:44;;;;;;;23.63;13.57;;;;;;;42.39;36.59;101088.69;6156992;23;20834;-93
2023/03/03 09:20:36;;;;;;;26.77;14.73;;;;;;;42.28;36.68;101092.16;6156992;23;20463;-91
2023/03/03 09:23:41;;;;;;;38.60;15.50;;;;;;;42.54;36.08;101092.78;6157427;23;20456;-96
2023/03/03 09:26:27;;;;;;;24.63;13.73;;;;;;;42.42;36.57;101086.44;6071396;23;20364;-96
2023/03/03 09:29:08;;;;;;;33.60;14.73;;;;;;;42.57;36.39;101096.75;6046042;23;20455;-82
2023/03/03 09:31:44;;;;;;;28.63;12.57;;;;;;;42.42;36.06;101105.53;6126752;23;20392;-92
2023/03/03 09:34:41;;;;;;;26.50;11.67;;;;;;;42.75;36.03;101098.25;6108685;23;20404;-95
2023/03/03 09:37:22;;;;;;;41.20;16.27;;;;;;;42.85;35.90;101103.28;6158600;23;20409;-94
2023/03/03 09:40:11;;;;;;;30.43;14.80;;;;;;;42.74;35.76;101096.66;6163821;23;20437;-88
2023/03/03 09:43:22;;;;;;;31.87;14.20;;;;;;;42.84;35.65;101098.94;6157938;23;20397;-90
2023/03/03 09:46:26;;;;;;;30.83;13.13;;;;;;;42.82;35.79;101097.69;6163261;23;20361;-91
2023/03/03 09:49:33;;;;;;;22.67;12.80;;;;;;;43.02;35.55;101098.81;6160162;23;20789;-89
2023/03/03 09:52:38;;;;;;;27.53;16.47;;;;;;;43.08;35.62;101100.19;6077750;23;20468;-96
2023/03/03 09:58:56;;;;;;;30.67;15.60;;;;;;;43.14;36.65;101090.66;6130539;23;21276;-90
2023/03/03 10:02:02;;;;;;;25.93;16.83;;;;;;;43.24;35.34;101090.25;6127053;23;20767;-85
2023/03/03 10:05:10;;;;;;;33.70;16.80;;;;;;;42.84;35.74;101081.78;6136224;23;20382;-84
2023/03/03 10:08:18;;;;;;;28.10;15.80;;;;;;;42.76;35.64;101090.84;6100113;23;20394;-87
2023/03/03 10:10:47;;;;;;;39.03;15.67;;;;;;;43.06;35.36;101091.56;6106105;23;20378;-92
2023/03/03 10:13:19;;;;;;;28.07;17.00;;;;;;;42.81;35.71;101085.97;6107323;23;20422;-88
2023/03/03 10:16:16;;;;;;;24.77;16.83;;;;;;;43.02;35.80;101082.44;6110494;23;20421;-85
2023/03/03 10:22:39;;;;;;;28.47;16.47;;;;;;;43.06;35.01;101073.25;6129192;23;20881;-92
2023/03/03 10:25:20;;;;;;;23.43;15.90;;;;;;;43.32;34.90;101077.63;6099865;23;20850;-92
2023/03/03 10:27:51;;;;;;;29.07;17.37;;;;;;;43.00;35.10;101071.88;6098154;23;20383;-93
2023/03/03 10:30:27;;;;;;;24.20;14.73;;;;;;;42.82;35.18;101062.22;6098695;23;20382;-92
2023/03/03 10:33:05;;;;;;;27.37;16.90;;;;;;;42.70;35.65;101065.69;6098146;23;20390;-91
2023/03/03 10:35:53;;;;;;;29.13;16.30;;;;;;;43.00;35.43;101052.75;6103167;23;20386;-96
2023/03/03 10:38:29;;;;;;;33.23;16.83;;;;;;;42.61;36.05;101056.81;6101926;23;20874;-96
2023/03/03 10:41:17;;;;;;;31.83;16.20;;;;;;;42.94;35.51;101065.00;6101402;23;20425;-95
2023/03/03 10:44:05;;;;;;;41.87;18.40;;;;;;;43.13;35.16;101050.84;6102071;23;20449;-94
2023/03/03 10:47:03;;;;;;;32.13;17.97;;;;;;;42.83;35.58;101056.41;6097601;23;20397;-89
2023/03/03 10:49:50;;;;;;;36.17;18.23;;;;;;;43.00;34.98;101051.97;6096327;23;20719;-87
2023/03/03 10:52:36;;;;;;;26.43;16.67;;;;;;;42.69;35.90;101055.94;6097103;23;20955;-92
2023/03/03 10:55:24;;;;;;;29.33;17.50;;;;;;;42.58;36.03;101050.06;6123369;23;20388;-87
2023/03/03 10:57:51;;;;;;;25.33;17.40;;;;;;;43.10;35.30;101048.81;6098725;23;20449;-91
2023/03/03 11:00:30;;;;;;;29.97;17.40;;;;;;;43.03;35.42;101041.19;6098923;23;20432;-89
2023/03/03 11:03:11;;;;;;;26.93;16.77;;;;;;;43.21;35.30;101043.69;6099150;23;20429;-88
2023/03/03 11:05:57;;;;;;;40.97;19.73;;;;;;;42.72;35.84;101036.16;6098586;23;20382;-88
2023/03/03 11:08:30;;;;;;;26.30;18.87;;;;;;;43.17;35.50;101040.88;6098656;23;20382;-89
2023/03/03 11:11:15;;;;;;;37.67;19.43;;;;;;;43.32;34.73;101040.19;6098854;23;20855;-89
2023/03/03 11:13:45;;;;;;;33.87;20.03;;;;;;;43.34;34.66;101039.84;6099111;23;20425;-92
2023/03/03 11:16:22;;;;;;;38.53;17.93;;;;;;;43.18;34.65;101037.78;6099137;23;20393;-91
2023/03/03 11:19:07;;;;;;;36.03;18.40;;;;;;;43.38;34.69;101027.94;6099167;23;20382;-91
2023/03/03 11:21:54;;;;;;;23.50;16.40;;;;;;;43.49;34.15;101025.56;6098824;23;20909;-90
2023/03/03 11:24:20;;;;;;;27.90;18.23;;;;;;;43.20;34.04;101018.31;6098857;23;20704;-89
2023/03/03 11:27:03;;;;;;;43.10;18.90;;;;;;;43.42;34.31;101022.59;6098928;23;20905;-87
2023/03/03 11:29:47;;;;;;;24.23;16.63;;;;;;;43.41;34.34;101024.53;6098457;23;20244;-85
2023/03/03 11:32:26;;;;;;;26.40;16.90;;;;;;;43.33;34.50;101011.72;6098701;23;20449;-89
2023/03/03 11:35:22;;;;;;;24.73;14.97;;;;;;;43.10;35.25;101010.59;6098963;23;20449;-90
2023/03/03 11:38:18;;;;;;;27.30;19.77;;;;;;;43.13;35.21;101012.63;6100583;23;20410;-87
2023/03/03 11:40:50;;;;;;;26.73;16.53;;;;;;;43.05;34.96;101017.06;6101428;23;20430;-87
2023/03/03 11:43:25;;;;;;;23.80;18.07;;;;;;;43.23;35.56;101011.41;6100734;23;20386;-86
2023/03/03 11:45:58;;;;;;;34.33;18.40;;;;;;;43.27;34.73;101010.38;6100723;23;20878;-88
2023/03/03 11:48:37;;;;;;;28.97;14.20;;;;;;;42.91;35.58;101003.72;6100652;23;20392;-91
2023/03/03 11:51:19;;;;;;;20.07;14.67;;;;;;;43.16;35.25;101006.50;6100660;23;20417;-88
2023/03/03 11:53:45;;;;;;;22.67;13.47;;;;;;;43.44;34.83;101010.19;6100719;23;20396;-85
2023/03/03 11:56:34;;;;;;;26.80;14.77;;;;;;;43.38;34.70;101010.72;6100310;23;20385;-85
2023/03/03 11:59:11;;;;;;;30.80;14.30;;;;;;;43.28;34.94;101006.53;6113900;23;20253;-84
2023/03/03 12:02:20;;;;;;;33.63;14.73;;;;;;;43.34;34.17;101001.59;6124894;23;20390;-84
2023/03/03 12:04:55;;;;;;;31.40;16.43;;;;;;;43.45;33.99;101003.56;6083715;23;20386;-88
2023/03/03 12:08:11;;;;;;;28.03;14.77;;;;;;;43.58;33.64;100995.38;6124395;23;20381;-83
2023/03/03 12:11:06;;;;;;;30.87;15.70;;;;;;;43.41;33.54;100986.31;6088019;23;20730;-83
2023/03/03 12:13:53;;;;;;;26.57;16.03;;;;;;;43.58;33.09;100987.19;6116206;23;20422;-86
2023/03/03 12:16:40;;;;;;;32.57;15.47;;;;;;;43.28;33.92;100978.41;6124555;23;20500;-87
2023/03/03 12:19:18;;;;;;;27.90;13.37;;;;;;;43.51;33.16;100981.50;6124877;23;20488;-85
2023/03/03 12:22:07;;;;;;;21.37;13.93;;;;;;;43.43;33.67;100981.28;6124815;23;20401;-87
2023/03/03 12:24:51;;;;;;;26.77;14.33;;;;;;;43.23;33.71;100973.97;6124949;23;20918;-85
2023/03/03 12:27:34;;;;;;;26.03;14.00;;;;;;;43.53;33.28;100980.03;6125826;23;20367;-88
2023/03/03 12:30:12;;;;;;;34.57;16.33;;;;;;;43.55;33.76;100966.03;6122258;23;20382;-85
2023/03/03 12:32:47;;;;;;;27.97;15.07;;;;;;;43.54;33.65;100958.97;6124765;23;20393;-85
2023/03/03 12:35:20;;;;;;;24.13;12.60;;;;;;;43.61;33.41;100959.97;6121904;23;20424;-84
2023/03/03 12:38:21;;;;;;;25.37;14.57;;;;;;;43.58;33.44;100957.13;6124078;23;20394;-83
2023/03/03 12:41:03;;;;;;;28.37;14.13;;;;;;;43.51;33.53;100944.06;6123972;23;20449;-84
2023/03/03 12:43:50;;;;;;;24.17;15.00;;;;;;;43.70;33.27;100938.78;6122952;23;20400;-85
2023/03/03 12:46:38;;;;;;;29.73;14.97;;;;;;;43.72;33.43;100939.25;6125842;23;20383;-88
2023/03/03 12:49:04;;;;;;;24.90;12.83;;;;;;;43.69;33.18;100933.66;6124030;23;20411;-85
2023/03/03 12:52:18;;;;;;;28.33;13.20;;;;;;;43.48;33.87;100924.84;6125925;23;20370;-90
2023/03/03 12:54:56;;;;;;;20.90;12.13;;;;;;;43.39;33.70;100914.81;6123356;23;20401;-88
2023/03/03 12:58:06;;;;;;;29.13;15.87;;;;;;;43.67;33.27;100897.72;6123511;23;20406;-82
2023/03/03 13:00:53;;;;;;;37.80;15.60;;;;;;;43.62;33.52;100889.75;6113089;23;20441;-84
2023/03/03 13:03:32;;;;;;;22.43;11.77;;;;;;;43.83;33.61;100897.78;6121144;23;20390;-86
2023/03/03 13:06:14;;;;;;;27.13;13.17;;;;;;;43.51;34.20;100881.22;6121882;23;20445;-93
2023/03/03 13:08:51;;;;;;;20.63;14.07;;;;;;;43.56;34.07;100883.72;6122067;23;20789;-84
2023/03/03 13:11:30;;;;;;;19.80;13.63;;;;;;;43.56;34.46;100863.81;6121989;23;20405;-85
2023/03/03 13:14:10;;;;;;;30.37;15.50;;;;;;;43.84;34.09;100867.41;6124104;23;20488;-85
2023/03/03 13:16:52;;;;;;;28.40;16.50;;;;;;;43.41;34.69;100871.59;6122879;23;20390;-84
2023/03/03 13:19:25;;;;;;;25.23;14.07;;;;;;;43.47;34.40;100861.22;6123155;23;20430;-85
2023/03/03 13:22:14;;;;;;;36.17;16.43;;;;;;;43.01;35.38;100867.97;6123741;23;20397;-85
2023/03/03 13:24:41;;;;;;;24.30;14.17;;;;;;;43.59;34.77;100868.59;6123447;23;20386;-90
2023/03/03 13:27:17;;;;;;;46.47;17.70;;;;;;;43.10;35.23;100864.00;6122823;23;20952;-85
2023/03/03 13:29:56;;;;;;;23.63;12.97;;;;;;;43.55;34.48;100849.38;6122754;23;20405;-84
2023/03/03 13:32:30;;;;;;;24.83;16.40;;;;;;;43.70;34.31;100843.16;6125259;23;20455;-90
2023/03/03 13:35:28;;;;;;;28.87;16.90;;;;;;;43.43;34.44;100836.53;6124008;23;20394;-84
2023/03/03 13:37:57;;;;;;;26.50;13.87;;;;;;;43.61;34.35;100836.25;6123602;23;20398;-84
2023/03/03 13:40:37;;;;;;;34.77;18.37;;;;;;;43.61;33.98;100847.19;6125130;23;20441;-84
2023/03/03 13:43:14;;;;;;;28.87;14.77;;;;;;;43.52;34.75;100841.06;6122585;23;20394;-89
2023/03/03 13:46:01;;;;;;;29.53;13.00;;;;;;;43.28;34.91;100845.44;6124094;23;20382;-85
2023/03/03 13:49:06;;;;;;;26.23;15.40;;;;;;;43.42;34.34;100845.06;6123904;23;20374;-84
2023/03/03 13:51:50;;;;;;;32.87;14.20;;;;;;;43.62;34.35;100838.63;6125034;23;20472;-84